Time;durP1;ratioP1;P1;durP2;ratioP2;P2;SDS_P1;SDS_P2;PMS_P1;PMS_P2;Temp;Humidity;BMP_temperature;BMP_pressure;BME280_temperature;BME280_humidity;BME280_pressure;Samples;Min_cycle;Max_cycle;Signal;HPM_P1;HPM_P2
2022/06/16 00:02:14;;;;;;;10.28;7.40;;;;;;;14.54;67.36;98844.06;1769911;80;25427;-56
2022/06/16 00:04:46;;;;;;;11.57;7.28;;;;;;;14.53;67.06;98840.26;1770256;80;25682;-56
2022/06/16 00:07:09;;;;;;;10.45;7.53;;;;;;;14.52;66.87;98841.41;1769681;80;25727;-56
2022/06/16 00:09:35;;;;;;;11.45;6.92;;;;;;;14.55;66.63;98838.80;1770291;81;27606;-56
2022/06/16 00:12:01;;;;;;;10.95;7.03;;;;;;;14.53;67.52;98838.31;1770005;80;25891;-56
2022/06/16 00:14:27;;;;;;;11.93;7.65;;;;;;;14.42;67.14;98820.55;1770372;80;25681;-56
2022/06/16 00:16:55;;;;;;;12.28;7.60;;;;;;;14.42;67.14;98820.55;1769957;80;26617;-56
2022/06/16 00:19:21;;;;;;;11.48;7.42;;;;;;;14.49;67.43;98828.30;1770243;80;25718;-60
2022/06/16 00:21:47;;;;;;;12.35;8.08;;;;;;;14.49;67.37;98823.59;1770260;80;28250;-61
2022/06/16 00:24:13;;;;;;;11.83;7.87;;;;;;;14.46;67.29;98820.13;1770226;80;25567;-61
2022/06/16 00:26:39;;;;;;;12.55;7.75;;;;;;;14.45;67.83;98818.50;1770376;80;25557;-59
2022/06/16 00:29:05;;;;;;;12.43;7.67;;;;;;;14.38;67.93;98817.67;1770153;80;25711;-62
2022/06/16 00:31:31;;;;;;;10.38;7.97;;;;;;;14.26;68.40;98805.19;1770389;80;25691;-58
2022/06/16 00:33:57;;;;;;;13.68;7.65;;;;;;;14.20;68.53;98812.03;1774422;80;27306;-61
2022/06/16 00:36:24;;;;;;;12.20;8.58;;;;;;;14.20;68.53;98812.03;1771425;80;25553;-57
2022/06/16 00:38:50;;;;;;;13.95;8.48;;;;;;;14.18;68.29;98806.30;1775207;79;25569;-61
2022/06/16 00:41:16;;;;;;;14.80;8.40;;;;;;;14.18;68.75;98806.86;1775479;80;25889;-61
2022/06/16 00:43:42;;;;;;;11.08;7.62;;;;;;;14.16;68.23;98807.19;1775690;80;25638;-61
2022/06/16 00:46:13;;;;;;;12.43;8.33;;;;;;;14.18;68.36;98802.72;1775467;79;28432;-56
2022/06/16 00:48:56;;;;;;;12.05;8.65;;;;;;;14.15;68.53;98801.45;1775312;79;25677;-56
2022/06/16 00:51:31;;;;;;;11.28;7.78;;;;;;;14.15;68.73;98801.45;1775383;79;25400;-57
2022/06/16 00:54:22;;;;;;;12.23;7.95;;;;;;;14.13;68.59;98803.72;1775342;80;25769;-57
2022/06/16 00:56:55;;;;;;;13.00;8.48;;;;;;;14.13;68.59;98803.72;1775324;79;25692;-56
2022/06/16 00:59:29;;;;;;;14.73;8.73;;;;;;;14.06;68.41;98797.94;1775349;79;28266;-56
2022/06/16 01:01:59;;;;;;;12.03;8.28;;;;;;;14.06;68.41;98797.94;1774803;80;25777;-56
2022/06/16 01:07:27;;;;;;;14.03;8.98;;;;;;;14.12;68.47;98798.55;1775072;80;25698;-56
2022/06/16 01:09:58;;;;;;;12.75;8.30;;;;;;;14.12;68.73;98794.41;1775296;80;25547;-54
2022/06/16 01:16:12;;;;;;;14.98;8.50;;;;;;;13.95;69.30;98786.50;1774988;80;25754;-61
2022/06/16 01:19:06;;;;;;;13.48;8.20;;;;;;;13.88;69.62;98791.14;1775368;79;25471;-60
2022/06/16 01:21:47;;;;;;;15.70;9.08;;;;;;;13.80;70.05;98790.64;1775152;79;25705;-61
2022/06/16 01:24:51;;;;;;;16.25;8.85;;;;;;;13.84;70.07;98796.30;1775675;79;25729;-62
2022/06/16 01:27:31;;;;;;;13.08;8.23;;;;;;;13.82;70.15;98793.88;1775575;79;27441;-56
2022/06/16 01:30:09;;;;;;;11.12;8.33;;;;;;;13.81;69.98;98789.48;1774889;79;25392;-56
2022/06/16 01:32:55;;;;;;;12.45;7.62;;;;;;;13.77;70.57;98788.55;1774126;80;25427;-56
2022/06/16 01:35:35;;;;;;;13.18;8.18;;;;;;;13.68;71.21;98785.84;1768224;80;25712;-56
2022/06/16 01:38:16;;;;;;;10.00;7.60;;;;;;;13.62;71.25;98789.92;1770944;80;33224;-56
2022/06/16 01:40:53;;;;;;;12.33;8.00;;;;;;;13.54;71.81;98788.26;1765859;80;28715;-62
2022/06/16 01:43:32;;;;;;;15.85;8.98;;;;;;;13.50;72.05;98783.15;1769165;80;25650;-61
2022/06/16 01:46:12;;;;;;;10.78;7.30;;;;;;;13.46;71.71;98788.23;1767682;80;25653;-61
2022/06/16 01:48:42;;;;;;;13.43;8.95;;;;;;;13.41;72.31;98784.53;1767385;80;25753;-61
2022/06/16 01:51:19;;;;;;;12.27;8.33;;;;;;;13.35;72.01;98791.92;1769553;80;25638;-61
2022/06/16 01:54:00;;;;;;;16.30;8.70;;;;;;;13.34;72.07;98784.25;1707348;83;27607;-62
2022/06/16 01:56:31;;;;;;;12.50;8.73;;;;;;;13.32;71.91;98787.10;1707255;84;25855;-60
2022/06/16 01:59:05;;;;;;;13.75;8.88;;;;;;;13.33;71.94;98781.83;1706051;84;25849;-60
2022/06/16 02:01:37;;;;;;;13.78;8.38;;;;;;;13.35;72.16;98779.53;1706214;84;26522;-60
2022/06/16 02:04:12;;;;;;;12.65;8.48;;;;;;;13.28;72.23;98785.00;1707250;82;25777;-61
2022/06/16 02:06:43;;;;;;;13.70;8.55;;;;;;;13.28;72.51;98782.25;1707283;84;26891;-60
2022/06/16 02:09:11;;;;;;;;;;;;;;;13.32;72.02;98778.84;1709685;84;25532;-61
2022/06/16 02:11:40;;;;;;;15.68;8.50;;;;;;;13.34;72.75;98773.80;1707201;84;25798;-56
2022/06/16 02:14:40;;;;;;;13.55;8.70;;;;;;;13.30;72.38;98777.20;1706952;84;26737;-57
2022/06/16 02:17:09;;;;;;;12.27;8.97;;;;;;;13.33;72.56;98775.77;1707598;84;25465;-56
2022/06/16 02:19:37;;;;;;;12.73;8.25;;;;;;;13.29;72.45;98782.48;1707187;84;27350;-57
2022/06/16 02:22:04;;;;;;;12.28;9.10;;;;;;;13.24;73.09;98782.65;1703382;84;25726;-56
2022/06/16 02:24:30;;;;;;;13.38;9.48;;;;;;;13.21;72.65;98791.56;1707542;83;25632;-56
2022/06/16 02:27:00;;;;;;;16.40;9.38;;;;;;;13.19;72.48;98786.97;1711941;83;26466;-57
2022/06/16 02:29:41;;;;;;;13.13;9.25;;;;;;;13.18;72.61;98789.47;1712586;83;25516;-57
2022/06/16 02:32:10;;;;;;;14.28;9.73;;;;;;;13.13;72.65;98785.53;1768625;79;25950;-56
2022/06/16 02:34:51;;;;;;;12.98;9.20;;;;;;;13.12;72.61;98790.77;1778742;79;26393;-56
2022/06/16 02:38:02;;;;;;;12.70;9.05;;;;;;;13.09;72.74;98781.23;1778296;79;25650;-56
2022/06/16 02:41:07;;;;;;;14.45;8.83;;;;;;;13.13;72.70;98784.16;1773871;79;26662;-56
2022/06/16 02:44:05;;;;;;;15.30;8.90;;;;;;;13.16;73.05;98784.88;1792002;79;25646;-60
2022/06/16 02:46:42;;;;;;;11.60;8.93;;;;;;;13.17;72.88;98781.80;1778464;80;28257;-61
2022/06/16 02:49:23;;;;;;;13.78;8.93;;;;;;;13.16;73.15;98780.75;1777065;80;25861;-62
2022/06/16 02:52:34;;;;;;;11.60;8.60;;;;;;;13.13;73.35;98775.31;1777508;80;25593;-62
2022/06/16 02:55:14;;;;;;;11.45;8.40;;;;;;;13.05;73.38;98781.11;1773549;80;26454;-57
2022/06/16 02:57:48;;;;;;;12.25;8.83;;;;;;;12.98;73.82;98781.36;1779675;80;25562;-56
2022/06/16 03:00:19;;;;;;;13.85;9.63;;;;;;;12.97;73.60;98787.98;1780274;80;27469;-57
2022/06/16 03:02:46;;;;;;;14.10;8.53;;;;;;;12.97;74.02;98791.55;1777743;80;25773;-57
2022/06/16 03:05:14;;;;;;;13.65;8.78;;;;;;;12.98;73.58;98786.86;1777848;80;25645;-61
2022/06/16 03:07:42;;;;;;;13.25;9.63;;;;;;;13.01;73.45;98796.63;1777779;80;26768;-58
2022/06/16 03:10:12;;;;;;;11.43;8.90;;;;;;;13.01;73.78;98792.50;1777923;80;25714;-61
2022/06/16 03:12:38;;;;;;;10.68;8.63;;;;;;;12.99;73.51;98793.97;1780168;80;33187;-62
2022/06/16 03:15:06;;;;;;;13.90;8.93;;;;;;;13.02;73.85;98790.02;1777860;80;26090;-61
2022/06/16 03:17:32;;;;;;;11.90;8.73;;;;;;;13.03;73.39;98794.37;1773960;80;25713;-60
2022/06/16 03:19:59;;;;;;;15.60;7.62;;;;;;;13.04;73.27;98790.47;1777752;80;25693;-62
2022/06/16 03:22:25;;;;;;;14.63;8.30;;;;;;;13.04;73.79;98789.69;1777892;80;25713;-62
2022/06/16 03:24:50;;;;;;;11.30;8.53;;;;;;;12.97;73.97;98790.17;1777906;80;27073;-61
2022/06/16 03:27:17;;;;;;;11.25;8.83;;;;;;;12.99;73.59;98792.04;1777770;80;25659;-62
2022/06/16 03:29:43;;;;;;;11.83;8.70;;;;;;;13.07;73.76;98790.96;1777827;80;25621;-62
2022/06/16 03:32:09;;;;;;;13.15;9.15;;;;;;;13.14;73.56;98792.08;1777961;80;25672;-61
2022/06/16 03:34:35;;;;;;;14.60;8.93;;;;;;;13.26;73.30;98788.64;1765792;79;25723;-62
2022/06/16 03:37:02;;;;;;;14.65;8.90;;;;;;;13.34;73.20;98784.25;1763213;80;28345;-57
2022/06/16 03:39:28;;;;;;;11.50;8.48;;;;;;;13.43;73.22;98783.65;1764510;81;25656;-56
2022/06/16 03:41:53;;;;;;;12.65;8.78;;;;;;;13.52;72.80;98784.20;1765035;81;25689;-57
2022/06/16 03:44:19;;;;;;;12.40;8.15;;;;;;;13.59;72.67;98782.32;1764993;81;26506;-57
2022/06/16 03:46:46;;;;;;;11.78;8.43;;;;;;;13.72;72.28;98783.22;1764912;81;25722;-57
2022/06/16 03:49:12;;;;;;;14.75;8.50;;;;;;;13.85;72.17;98784.95;1765110;81;27413;-57
2022/06/16 03:51:38;;;;;;;11.83;7.53;;;;;;;13.95;71.96;98777.41;1764845;81;25682;-57
2022/06/16 03:54:04;;;;;;;12.98;8.35;;;;;;;14.08;71.46;98783.83;1764937;81;25663;-58
2022/06/16 03:56:30;;;;;;;9.93;7.10;;;;;;;14.15;71.10;98779.97;1765091;81;25676;-57
2022/06/16 03:58:57;;;;;;;11.22;7.65;;;;;;;14.26;70.76;98770.17;1764865;81;25468;-57
2022/06/16 04:01:23;;;;;;;11.43;7.53;;;;;;;14.26;70.76;98770.17;1765064;81;27416;-57
2022/06/16 04:04:01;;;;;;;11.22;8.08;;;;;;;14.47;70.12;98787.27;1765042;81;25677;-57
2022/06/16 04:06:34;;;;;;;12.07;8.10;;;;;;;14.55;69.97;98781.45;1764873;81;25476;-57
2022/06/16 04:09:02;;;;;;;11.68;7.67;;;;;;;14.64;69.85;98781.37;1765087;81;26331;-57
2022/06/16 04:11:28;;;;;;;12.80;7.25;;;;;;;14.71;69.15;98771.97;1765096;81;25625;-58
2022/06/16 04:14:02;;;;;;;11.38;8.08;;;;;;;14.78;68.34;98772.81;1755309;81;27906;-62
2022/06/16 04:16:32;;;;;;;10.40;7.92;;;;;;;15.00;68.34;98770.84;1754436;81;25906;-60
2022/06/16 04:18:59;;;;;;;11.35;7.92;;;;;;;15.00;68.34;98770.84;1761365;81;25677;-57
2022/06/16 04:21:26;;;;;;;9.33;7.10;;;;;;;15.10;68.10;98759.92;1764593;81;25759;-57
2022/06/16 04:23:53;;;;;;;13.00;7.37;;;;;;;15.47;67.14;98772.98;1764987;81;25638;-62
2022/06/16 04:26:19;;;;;;;9.53;6.70;;;;;;;15.47;67.14;98772.98;1764705;81;27499;-61
2022/06/16 04:28:45;;;;;;;11.88;7.72;;;;;;;15.64;66.90;98768.64;1764680;81;25713;-63
2022/06/16 04:31:12;;;;;;;10.65;7.42;;;;;;;15.83;66.81;98769.98;1765084;81;25589;-62
2022/06/16 04:33:38;;;;;;;10.63;6.90;;;;;;;16.04;66.36;98776.00;1767416;80;26730;-63
2022/06/16 04:36:06;;;;;;;8.95;6.70;;;;;;;16.20;65.90;98778.05;1769941;81;25474;-62
2022/06/16 04:38:32;;;;;;;9.28;7.00;;;;;;;16.29;65.26;98778.12;1769960;81;27613;-64
2022/06/16 04:40:58;;;;;;;10.53;7.35;;;;;;;16.40;65.60;98775.69;1769893;80;25862;-62
2022/06/16 04:43:26;;;;;;;12.78;7.25;;;;;;;16.60;65.39;98778.61;1769953;81;25645;-62
2022/06/16 04:45:52;;;;;;;10.23;7.87;;;;;;;16.81;65.28;98768.72;1769616;81;25832;-58
2022/06/16 04:48:19;;;;;;;12.58;7.85;;;;;;;17.01;64.14;98773.60;1769688;81;25688;-62
2022/06/16 04:50:45;;;;;;;12.80;7.17;;;;;;;17.16;64.07;98772.83;1769901;81;27374;-62
2022/06/16 04:53:10;;;;;;;13.05;7.03;;;;;;;17.35;64.09;98769.13;1769647;80;25589;-62
2022/06/16 04:55:36;;;;;;;11.08;7.25;;;;;;;17.47;63.63;98766.27;1770090;80;25550;-62
2022/06/16 04:58:04;;;;;;;12.10;7.35;;;;;;;17.59;62.88;98763.20;1769951;80;26472;-63
2022/06/16 05:00:30;;;;;;;10.65;7.10;;;;;;;17.66;63.24;98764.75;1770025;81;25637;-62
2022/06/16 05:02:57;;;;;;;11.73;6.60;;;;;;;17.81;62.51;98761.73;1769661;80;27411;-57
2022/06/16 05:05:23;;;;;;;9.95;7.30;;;;;;;17.94;62.67;98757.67;1769776;81;25898;-58
2022/06/16 05:07:50;;;;;;;9.58;6.60;;;;;;;18.10;62.64;98756.05;1769675;81;25643;-58
2022/06/16 05:10:16;;;;;;;12.03;6.70;;;;;;;18.36;62.11;98758.21;1769789;81;26056;-58
2022/06/16 05:12:42;;;;;;;9.00;6.37;;;;;;;18.52;61.32;98753.18;1770017;80;25621;-58
2022/06/16 05:15:09;;;;;;;10.45;5.55;;;;;;;18.68;60.93;98751.70;1769726;81;27631;-58
2022/06/16 05:17:35;;;;;;;7.50;5.50;;;;;;;18.88;59.60;98753.09;1769843;81;25626;-58
2022/06/16 05:20:02;;;;;;;8.08;5.65;;;;;;;18.96;58.87;98754.00;1770038;81;25690;-58
2022/06/16 05:22:29;;;;;;;7.97;5.50;;;;;;;19.01;58.86;98755.91;1769591;80;27737;-57
2022/06/16 05:24:55;;;;;;;10.03;5.60;;;;;;;19.17;58.64;98759.20;1769884;81;25430;-57
2022/06/16 05:27:21;;;;;;;7.62;5.60;;;;;;;19.23;58.73;98763.25;1769946;81;28413;-58
2022/06/16 05:29:47;;;;;;;9.70;6.28;;;;;;;19.40;58.32;98757.78;1765971;80;26514;-58
2022/06/16 05:32:13;;;;;;;8.10;5.53;;;;;;;19.52;58.05;98758.78;1769728;81;25612;-58
2022/06/16 05:34:39;;;;;;;8.28;5.92;;;;;;;19.65;58.04;98756.59;1773682;80;25719;-58
2022/06/16 05:37:06;;;;;;;13.75;5.72;;;;;;;19.87;57.41;98749.97;1778287;80;25705;-58
2022/06/16 05:39:32;;;;;;;6.42;5.22;;;;;;;20.01;56.97;98743.82;1777759;80;27307;-58
2022/06/16 05:41:58;;;;;;;8.23;5.15;;;;;;;20.20;56.92;98746.30;1778132;80;26278;-58
2022/06/16 05:44:25;;;;;;;7.05;4.10;;;;;;;20.36;56.21;98746.09;1776437;80;25713;-58
2022/06/16 05:46:51;;;;;;;7.90;4.37;;;;;;;20.43;54.91;98744.78;1774746;80;25951;-62
2022/06/16 05:49:18;;;;;;;5.85;4.20;;;;;;;20.45;55.60;98743.82;1775106;80;25629;-63
2022/06/16 05:51:44;;;;;;;6.37;4.05;;;;;;;20.60;55.33;98746.77;1774843;80;27406;-63
2022/06/16 05:54:11;;;;;;;5.25;3.85;;;;;;;20.70;54.21;98747.50;1775072;80;25814;-64
2022/06/16 05:56:37;;;;;;;7.60;4.00;;;;;;;20.90;53.84;98748.12;1775181;80;25432;-61
2022/06/16 05:59:03;;;;;;;8.65;4.00;;;;;;;20.96;53.79;98743.03;1774512;80;25943;-61
2022/06/16 06:01:29;;;;;;;6.87;4.15;;;;;;;20.99;54.20;98741.45;1778023;80;25725;-62
2022/06/16 06:03:55;;;;;;;6.47;4.05;;;;;;;21.18;53.68;98738.45;1775482;80;28309;-64
2022/06/16 06:06:21;;;;;;;6.40;3.92;;;;;;;21.34;53.45;98742.16;1774908;80;25661;-63
2022/06/16 06:17:16;;;;;;;6.35;3.80;;;;;;;21.85;50.80;98732.81;1758309;80;25593;-63
2022/06/16 06:19:42;;;;;;;6.13;4.20;;;;;;;21.79;51.14;98736.58;1775170;80;25613;-60
2022/06/16 06:22:13;;;;;;;5.08;4.00;;;;;;;21.77;51.09;98741.73;1775059;80;25597;-63
2022/06/16 06:24:45;;;;;;;4.67;3.83;;;;;;;21.80;53.16;98729.21;1778041;80;25729;-64
2022/06/16 06:27:43;;;;;;;6.28;4.40;;;;;;;21.98;51.24;98730.48;1778259;80;25669;-57
2022/06/16 06:30:17;;;;;;;6.05;4.35;;;;;;;22.00;51.22;98733.11;1775774;80;27446;-57
2022/06/16 06:32:44;;;;;;;6.50;4.25;;;;;;;22.10;51.80;98727.98;1777555;80;25563;-57
2022/06/16 06:35:12;;;;;;;7.87;4.15;;;;;;;22.29;51.82;98723.48;1777590;80;25519;-57
2022/06/16 06:37:38;;;;;;;5.62;3.75;;;;;;;22.37;50.89;98727.11;1770000;80;26237;-57
2022/06/16 06:40:07;;;;;;;5.30;3.25;;;;;;;22.51;51.08;98718.58;1769919;80;25657;-56
2022/06/16 06:42:33;;;;;;;6.00;3.45;;;;;;;22.67;49.52;98718.25;1773767;80;27470;-57
2022/06/16 06:44:59;;;;;;;6.47;3.67;;;;;;;22.85;50.49;98721.08;1769872;80;25600;-56
2022/06/16 06:47:29;;;;;;;6.33;3.72;;;;;;;23.18;50.16;98726.14;1769907;80;25686;-57
2022/06/16 06:49:56;;;;;;;5.22;3.70;;;;;;;23.42;49.33;98722.37;1769872;81;26692;-61
2022/06/16 06:52:22;;;;;;;5.85;3.52;;;;;;;23.41;49.95;98722.17;1769859;81;25712;-59
2022/06/16 06:54:49;;;;;;;5.40;3.40;;;;;;;23.50;49.07;98714.77;1769419;81;27425;-57
2022/06/16 06:57:22;;;;;;;5.60;3.25;;;;;;;23.63;48.67;98710.17;1769857;81;25452;-57
2022/06/16 06:59:49;;;;;;;6.47;3.33;;;;;;;23.71;49.15;98716.55;1768255;80;25388;-63
2022/06/16 07:02:17;;;;;;;4.30;3.55;;;;;;;23.92;49.76;98712.29;1769998;81;25792;-56
2022/06/16 07:04:43;;;;;;;4.25;2.77;;;;;;;24.15;48.09;98708.25;1769933;81;25448;-58
2022/06/16 07:07:14;;;;;;;4.83;2.72;;;;;;;24.31;47.99;98711.20;1769900;81;27375;-60
2022/06/16 07:09:40;;;;;;;4.03;2.92;;;;;;;24.44;47.33;98704.55;1769567;80;25704;-57
2022/06/16 07:12:13;;;;;;;3.30;2.70;;;;;;;24.58;46.97;98708.48;1769503;81;25481;-57
2022/06/16 07:14:36;;;;;;;5.90;2.73;;;;;;;24.77;47.51;98705.16;1769757;80;25589;-63
2022/06/16 07:17:03;;;;;;;4.90;2.30;;;;;;;25.08;47.25;98703.78;1769832;81;25680;-64
2022/06/16 07:19:29;;;;;;;2.92;2.60;;;;;;;25.28;44.23;98703.44;1766842;78;27408;-62
2022/06/16 07:21:55;;;;;;;6.45;3.00;;;;;;;25.17;44.53;98708.32;1768420;80;25795;-64
2022/06/16 07:24:21;;;;;;;3.72;2.60;;;;;;;25.31;46.93;98701.80;1772400;78;25712;-63
2022/06/16 07:26:47;;;;;;;3.45;2.87;;;;;;;25.68;45.20;98702.30;1767268;80;27829;-63
2022/06/16 07:29:13;;;;;;;3.22;2.50;;;;;;;25.74;45.06;98697.02;1770920;81;25841;-65
2022/06/16 07:31:40;;;;;;;4.67;2.47;;;;;;;25.82;43.88;98692.94;1771493;80;27962;-64
2022/06/16 07:34:06;;;;;;;5.12;2.37;;;;;;;25.93;43.26;98696.41;1771062;81;25701;-65
2022/06/16 07:36:32;;;;;;;2.90;2.40;;;;;;;26.13;44.38;98691.57;1771230;80;26422;-59
2022/06/16 07:38:58;;;;;;;4.30;2.45;;;;;;;26.48;43.74;98693.59;1771454;81;26135;-60
2022/06/16 07:41:36;;;;;;;3.00;2.40;;;;;;;26.80;42.61;98686.72;1771218;80;25668;-62
2022/06/16 07:44:10;;;;;;;4.75;2.33;;;;;;;26.81;42.16;98684.89;1771085;81;27506;-64
2022/06/16 07:46:38;;;;;;;3.25;2.40;;;;;;;26.85;43.61;98682.63;1771297;80;25700;-63
2022/06/16 07:49:07;;;;;;;5.47;2.27;;;;;;;27.17;42.10;98686.98;1771494;80;25713;-64
2022/06/16 07:51:34;;;;;;;4.07;2.50;;;;;;;27.48;44.51;98684.63;1771560;80;26503;-60
2022/06/16 07:54:00;;;;;;;2.95;2.33;;;;;;;27.82;41.76;98687.87;1771073;81;25661;-57
2022/06/16 07:56:27;;;;;;;4.30;2.60;;;;;;;27.96;42.13;98689.61;1771114;80;27489;-57
2022/06/16 07:58:53;;;;;;;3.20;2.35;;;;;;;28.24;43.25;98694.50;1772197;80;25521;-59
2022/06/16 08:01:19;;;;;;;4.00;2.00;;;;;;;28.38;41.12;98698.27;1772067;81;25603;-58
2022/06/16 08:03:46;;;;;;;6.25;2.42;;;;;;;28.45;40.48;98691.05;1771985;81;27805;-57
2022/06/16 08:06:17;;;;;;;5.67;2.40;;;;;;;28.59;40.92;98689.14;1772102;80;25660;-57
2022/06/16 08:08:44;;;;;;;3.92;2.40;;;;;;;28.71;39.10;98684.84;1772422;80;27419;-58
2022/06/16 08:14:00;;;;;;;2.90;2.20;;;;;;;29.22;41.38;98689.33;1772133;81;25545;-58
2022/06/16 08:16:30;;;;;;;4.25;2.62;;;;;;;29.34;37.47;98686.40;1772373;80;26584;-64
2022/06/16 08:18:57;;;;;;;3.27;2.22;;;;;;;29.42;39.57;98686.41;1771897;80;25644;-57
2022/06/16 08:21:23;;;;;;;4.12;2.40;;;;;;;29.58;38.43;98680.59;1772288;80;27558;-60
2022/06/16 08:23:50;;;;;;;3.17;1.87;;;;;;;29.53;36.85;98684.08;1772115;80;26076;-58
2022/06/16 08:26:16;;;;;;;4.60;2.42;;;;;;;29.41;36.70;98688.42;1772269;80;25660;-59
2022/06/16 08:28:43;;;;;;;3.37;2.33;;;;;;;29.28;36.75;98688.36;1772102;80;25814;-59
2022/06/16 08:31:09;;;;;;;3.60;2.45;;;;;;;29.14;36.62;98686.69;1768714;80;25602;-62
2022/06/16 08:33:36;;;;;;;3.98;2.67;;;;;;;29.32;37.31;98684.66;1772119;81;27596;-62
2022/06/16 08:36:04;;;;;;;4.00;2.72;;;;;;;29.25;37.30;98690.66;1771940;80;25855;-57
2022/06/16 08:38:30;;;;;;;4.58;2.65;;;;;;;29.21;37.24;98687.11;1772062;80;25611;-57
2022/06/16 08:41:13;;;;;;;5.20;2.67;;;;;;;29.38;36.74;98689.30;1771975;80;25727;-58
2022/06/16 08:44:00;;;;;;;5.20;2.98;;;;;;;29.45;37.02;98684.72;1772085;81;26233;-60
2022/06/16 08:46:32;;;;;;;5.45;2.70;;;;;;;29.38;39.02;98685.08;1754677;81;27793;-64
2022/06/16 08:49:22;;;;;;;4.30;3.08;;;;;;;29.58;39.80;98680.59;1771709;80;25403;-63
2022/06/16 08:52:10;;;;;;;;;;;;;;;29.65;37.70;98681.17;1774663;80;25404;-61
2022/06/16 08:55:10;;;;;;;4.72;3.00;;;;;;;29.87;38.51;98672.72;1772591;80;27874;-62
2022/06/16 08:57:53;;;;;;;4.87;3.02;;;;;;;30.10;38.36;98669.48;1772453;81;25955;-65
2022/06/16 09:00:33;;;;;;;4.90;2.72;;;;;;;30.14;38.89;98670.16;1772242;80;27275;-63
2022/06/16 09:03:11;;;;;;;4.40;2.40;;;;;;;30.49;37.78;98676.63;1772500;80;25594;-64
2022/06/16 09:05:54;;;;;;;4.37;2.95;;;;;;;30.74;36.43;98668.77;1772155;80;25574;-64
2022/06/16 09:09:05;;;;;;;4.50;2.40;;;;;;;30.98;36.62;98664.22;1667592;85;25648;-64
2022/06/16 09:11:54;;;;;;;3.20;2.40;;;;;;;31.07;36.81;98668.38;1674854;84;25696;-62
2022/06/16 09:18:07;;;;;;;3.08;1.87;;;;;;;31.14;33.50;98667.52;1674695;84;25451;-64
2022/06/16 09:21:08;;;;;;;4.42;1.85;;;;;;;31.18;33.39;98668.82;1674799;84;25716;-65
2022/06/16 09:24:27;;;;;;;1.95;1.72;;;;;;;31.56;36.92;98672.81;1674693;85;26564;-64
2022/06/16 09:27:07;;;;;;;2.95;1.92;;;;;;;31.90;34.58;98675.46;1674925;85;25774;-64
2022/06/16 09:29:48;;;;;;;2.60;1.70;;;;;;;32.09;32.60;98678.43;1674781;85;27610;-62
2022/06/16 09:32:23;;;;;;;2.00;1.72;;;;;;;32.06;31.86;98670.84;1674584;85;25719;-60
2022/06/16 09:34:57;;;;;;;2.72;1.72;;;;;;;32.12;32.05;98676.09;1674612;84;25838;-63
2022/06/16 09:37:37;;;;;;;3.10;1.80;;;;;;;32.08;32.50;98674.02;1678712;85;25830;-65
2022/06/16 09:40:12;;;;;;;4.80;1.90;;;;;;;31.67;31.46;98666.77;1678635;85;25738;-61
2022/06/16 09:42:47;;;;;;;3.05;1.50;;;;;;;31.37;32.27;98662.73;1643030;87;28320;-64
2022/06/16 09:45:31;;;;;;;3.20;1.80;;;;;;;31.40;31.04;98658.98;1711177;80;25683;-64
2022/06/16 09:48:08;;;;;;;5.45;1.70;;;;;;;31.40;32.81;98658.98;1777132;79;25658;-64
2022/06/16 09:50:46;;;;;;;3.52;1.72;;;;;;;31.89;33.25;98664.59;1776984;80;25649;-63
2022/06/16 09:53:27;;;;;;;2.27;1.90;;;;;;;32.28;33.02;98669.43;1768645;80;25400;-60
2022/06/16 09:56:14;;;;;;;2.50;1.70;;;;;;;32.47;32.09;98674.41;1765319;80;27013;-63
2022/06/16 09:58:58;;;;;;;2.25;1.75;;;;;;;32.68;30.83;98669.95;1766912;80;25391;-63
2022/06/16 10:01:28;;;;;;;2.40;1.70;;;;;;;32.78;31.19;98674.41;1772064;79;25785;-64
2022/06/16 10:04:05;;;;;;;4.03;1.80;;;;;;;32.93;31.96;98670.35;1765274;80;26458;-61
2022/06/16 10:06:57;;;;;;;3.62;1.60;;;;;;;32.89;31.76;98666.08;1769191;80;25820;-64
2022/06/16 10:09:51;;;;;;;3.20;2.02;;;;;;;33.13;31.81;98664.91;1766163;80;28501;-64
2022/06/16 10:12:32;;;;;;;2.35;1.80;;;;;;;33.45;32.12;98659.75;1765143;80;25459;-64
2022/06/16 10:15:13;;;;;;;3.40;1.90;;;;;;;33.50;31.26;98660.56;1768162;80;25574;-64
2022/06/16 10:17:42;;;;;;;3.30;1.60;;;;;;;33.74;32.18;98661.36;1773739;79;29286;-64
2022/06/16 10:20:11;;;;;;;;;;;;;;;33.97;29.44;98657.70;1778267;80;25594;-64
2022/06/16 10:22:40;;;;;;;4.47;1.90;;;;;;;34.17;29.56;98656.58;1773852;80;27371;-59
2022/06/16 10:25:21;;;;;;;2.62;1.77;;;;;;;34.25;30.17;98653.42;1774426;80;25642;-65
2022/06/16 10:28:01;;;;;;;2.40;1.80;;;;;;;34.58;30.09;98654.09;1770909;79;25780;-63
2022/06/16 10:30:36;;;;;;;2.00;1.80;;;;;;;34.91;29.71;98654.73;1764213;80;25725;-57
2022/06/16 10:33:22;;;;;;;1.60;1.50;;;;;;;35.10;29.26;98646.09;1767309;80;25615;-64
2022/06/16 10:35:57;;;;;;;4.22;1.82;;;;;;;35.29;29.74;98645.34;1771003;79;27505;-64
2022/06/16 10:38:43;;;;;;;3.52;1.70;;;;;;;35.17;28.93;98649.22;1769620;80;25739;-62
2022/06/16 10:41:32;;;;;;;3.50;2.10;;;;;;;34.46;30.38;98655.08;1771942;80;25573;-65
2022/06/16 10:44:03;;;;;;;3.20;2.12;;;;;;;33.73;30.90;98659.14;1770068;80;25756;-63
2022/06/16 10:46:37;;;;;;;3.42;2.00;;;;;;;33.81;32.23;98652.52;1770350;80;25704;-63
2022/06/16 10:49:07;;;;;;;3.55;1.75;;;;;;;34.05;28.75;98651.86;1760281;80;28058;-62
2022/06/16 10:51:37;;;;;;;3.67;2.27;;;;;;;34.27;29.88;98647.41;1773297;80;25651;-63
2022/06/16 10:54:15;;;;;;;;;;;;;;;34.20;29.78;98646.32;1763283;81;25600;-61
2022/06/16 10:56:41;;;;;;;4.22;2.20;;;;;;;33.76;31.39;98646.83;1761299;81;25760;-63
2022/06/16 10:59:25;;;;;;;2.90;2.10;;;;;;;33.35;30.78;98642.70;1770091;80;25456;-63
2022/06/16 11:02:29;;;;;;;4.25;2.40;;;;;;;33.15;30.73;98643.94;1771806;80;28382;-63
2022/06/16 11:05:01;;;;;;;4.17;2.12;;;;;;;33.22;31.20;98640.02;1758609;81;25653;-63
2022/06/16 11:07:35;;;;;;;3.55;2.27;;;;;;;33.28;33.46;98634.50;1764582;80;25675;-63
2022/06/16 11:10:10;;;;;;;3.62;2.15;;;;;;;33.14;32.75;98638.12;1776615;80;25668;-64
2022/06/16 11:12:40;;;;;;;2.83;2.00;;;;;;;33.22;33.02;98631.50;1772945;80;26039;-63
2022/06/16 11:15:35;;;;;;;3.00;2.30;;;;;;;33.17;33.83;98631.50;1776820;80;27356;-59
2022/06/16 11:18:06;;;;;;;5.90;2.20;;;;;;;33.46;33.27;98639.40;1776320;80;25623;-63
2022/06/16 11:20:40;;;;;;;2.77;2.10;;;;;;;33.84;31.51;98631.67;1776376;80;25640;-61
2022/06/16 11:23:27;;;;;;;2.87;2.30;;;;;;;34.03;30.37;98634.48;1776382;80;26197;-62
2022/06/16 11:26:02;;;;;;;4.05;2.12;;;;;;;34.12;31.64;98630.82;1776555;80;25430;-62
2022/06/16 11:28:29;;;;;;;3.15;2.12;;;;;;;34.26;30.60;98625.12;1775703;80;28290;-60
2022/06/16 11:31:00;;;;;;;1.82;1.70;;;;;;;34.25;30.62;98624.98;1776230;80;25695;-64
2022/06/16 11:36:43;;;;;;;2.17;1.82;;;;;;;34.72;31.36;98619.91;1751674;81;25709;-62
2022/06/16 11:39:51;;;;;;;2.50;2.08;;;;;;;34.90;27.57;98616.80;1759106;81;25610;-64
2022/06/16 11:43:04;;;;;;;2.80;1.90;;;;;;;34.86;31.11;98615.56;1731616;82;27487;-63
2022/06/16 11:45:54;;;;;;;4.30;2.05;;;;;;;34.33;31.17;98609.14;1722415;83;25594;-64
2022/06/16 11:48:52;;;;;;;3.02;2.12;;;;;;;34.46;30.97;98609.56;1652922;85;25754;-61
2022/06/16 11:52:04;;;;;;;2.52;2.05;;;;;;;34.48;30.40;98608.46;1677243;85;25687;-64
2022/06/16 11:54:55;;;;;;;5.35;2.02;;;;;;;34.09;28.87;98601.92;1677182;85;25837;-64
2022/06/16 11:57:54;;;;;;;3.15;2.02;;;;;;;34.30;31.71;98602.98;1672674;85;27655;-63
2022/06/16 12:00:47;;;;;;;3.62;1.92;;;;;;;34.53;30.25;98594.36;1675347;85;25843;-62
2022/06/16 12:03:50;;;;;;;2.52;2.12;;;;;;;34.69;29.09;98603.00;1673853;85;25487;-62
2022/06/16 12:06:49;;;;;;;4.10;2.05;;;;;;;34.45;30.23;98594.55;1661334;85;26627;-59
2022/06/16 12:09:30;;;;;;;3.80;2.17;;;;;;;34.26;31.36;98592.42;1657126;86;25458;-63
2022/06/16 12:12:16;;;;;;;4.28;2.47;;;;;;;34.29;32.81;98590.84;1656989;86;27449;-64
2022/06/16 12:15:03;;;;;;;4.70;2.77;;;;;;;33.94;32.62;98581.30;1656711;86;26712;-63
2022/06/16 12:17:53;;;;;;;3.70;2.15;;;;;;;33.84;32.45;98586.20;1657051;86;25819;-63
2022/06/16 12:20:40;;;;;;;3.42;2.10;;;;;;;33.70;32.03;98569.82;1650193;86;26775;-59
2022/06/16 12:23:27;;;;;;;5.28;3.27;;;;;;;33.34;33.80;98582.13;1649318;86;25840;-63
2022/06/16 12:26:20;;;;;;;2.47;2.27;;;;;;;33.13;31.72;98573.30;1732560;82;28136;-60
2022/06/16 12:29:16;;;;;;;2.52;2.22;;;;;;;33.11;32.50;98571.55;1743012;81;25958;-62